sensor_id;sensor_type;location;lat;lon;timestamp;pressure;altitude;pressure_sealevel;temperature;humidity
13734;BME280;43298;52.560;13.508;2023-12-14T00:00:29;98697.28;;;4.27;100.00
13734;BME280;43298;52.560;13.508;2023-12-14T00:02:56;98697.22;;;4.29;100.00
13734;BME280;43298;52.560;13.508;2023-12-14T00:05:22;98694.66;;;4.29;100.00
13734;BME280;43298;52.560;13.508;2023-12-14T00:07:48;98703.97;;;4.30;100.00
13734;BME280;43298;52.560;13.508;2023-12-14T00:10:13;98706.81;;;4.24;100.00
13734;BME280;43298;52.560;13.508;2023-12-14T00:12:39;98713.63;;;4.25;100.00
13734;BME280;43298;52.560;13.508;2023-12-14T00:15:06;98713.75;;;4.22;100.00
13734;BME280;43298;52.560;13.508;2023-12-14T00:17:32;98727.59;;;4.18;100.00
13734;BME280;43298;52.560;13.508;2023-12-14T00:19:58;98727.28;;;4.24;100.00
13734;BME280;43298;52.560;13.508;2023-12-14T00:22:24;98737.00;;;4.17;100.00
13734;BME280;43298;52.560;13.508;2023-12-14T00:24:50;98741.13;;;4.20;100.00
13734;BME280;43298;52.560;13.508;2023-12-14T00:27:15;98740.31;;;4.19;100.00
13734;BME280;43298;52.560;13.508;2023-12-14T00:29:41;98743.69;;;4.20;100.00
13734;BME280;43298;52.560;13.508;2023-12-14T00:32:07;98757.53;;;4.16;100.00
13734;BME280;43298;52.560;13.508;2023-12-14T00:34:33;98762.78;;;4.13;100.00
13734;BME280;43298;52.560;13.508;2023-12-14T00:36:58;98766.19;;;4.13;100.00
13734;BME280;43298;52.560;13.508;2023-12-14T00:39:24;98773.78;;;4.15;100.00
13734;BME280;43298;52.560;13.508;2023-12-14T00:41:50;98769.44;;;4.17;100.00
13734;BME280;43298;52.560;13.508;2023-12-14T00:44:16;98770.94;;;4.21;100.00
13734;BME280;43298;52.560;13.508;2023-12-14T00:46:42;98774.53;;;4.17;100.00
13734;BME280;43298;52.560;13.508;2023-12-14T00:49:08;98773.97;;;4.10;100.00
13734;BME280;43298;52.560;13.508;2023-12-14T00:51:33;98779.16;;;4.09;100.00
13734;BME280;43298;52.560;13.508;2023-12-14T00:53:59;98773.84;;;4.13;100.00
13734;BME280;43298;52.560;13.508;2023-12-14T00:56:25;98792.66;;;4.12;100.00
13734;BME280;43298;52.560;13.508;2023-12-14T00:58:51;98787.16;;;4.03;100.00
13734;BME280;43298;52.560;13.508;2023-12-14T01:01:17;98790.59;;;4.02;100.00
13734;BME280;43298;52.560;13.508;2023-12-14T01:03:42;98791.41;;;4.02;100.00
13734;BME280;43298;52.560;13.508;2023-12-14T01:06:08;98799.94;;;4.03;100.00
13734;BME280;43298;52.560;13.508;2023-12-14T01:08:34;98807.44;;;4.06;100.00
13734;BME280;43298;52.560;13.508;2023-12-14T01:11:00;98815.47;;;3.98;100.00
13734;BME280;43298;52.560;13.508;2023-12-14T01:13:26;98819.69;;;3.99;100.00
13734;BME280;43298;52.560;13.508;2023-12-14T01:15:51;98813.91;;;3.96;100.00
13734;BME280;43298;52.560;13.508;2023-12-14T01:18:17;98823.28;;;3.95;100.00
13734;BME280;43298;52.560;13.508;2023-12-14T01:20:43;98833.56;;;3.94;100.00
13734;BME280;43298;52.560;13.508;2023-12-14T01:23:09;98832.81;;;3.92;100.00
13734;BME280;43298;52.560;13.508;2023-12-14T01:25:35;98838.09;;;3.89;100.00
13734;BME280;43298;52.560;13.508;2023-12-14T01:28:02;98835.66;;;3.86;100.00
13734;BME280;43298;52.560;13.508;2023-12-14T01:30:28;98837.44;;;3.84;100.00
13734;BME280;43298;52.560;13.508;2023-12-14T01:32:53;98844.38;;;3.82;100.00
13734;BME280;43298;52.560;13.508;2023-12-14T01:35:19;98852.09;;;3.80;100.00
13734;BME280;43298;52.560;13.508;2023-12-14T01:37:45;98846.03;;;3.83;100.00
13734;BME280;43298;52.560;13.508;2023-12-14T01:40:11;98855.47;;;3.81;100.00
13734;BME280;43298;52.560;13.508;2023-12-14T01:42:37;98861.81;;;3.72;100.00
13734;BME280;43298;52.560;13.508;2023-12-14T01:45:05;98866.84;;;3.74;100.00
13734;BME280;43298;52.560;13.508;2023-12-14T01:47:30;98867.91;;;3.70;100.00
13734;BME280;43298;52.560;13.508;2023-12-14T01:49:56;98868.66;;;3.72;100.00
13734;BME280;43298;52.560;13.508;2023-12-14T01:52:22;98872.25;;;3.68;100.00
13734;BME280;43298;52.560;13.508;2023-12-14T01:54:48;98879.09;;;3.67;100.00
13734;BME280;43298;52.560;13.508;2023-12-14T01:57:13;98876.53;;;3.67;100.00
13734;BME280;43298;52.560;13.508;2023-12-14T01:59:39;98882.59;;;3.65;100.00
13734;BME280;43298;52.560;13.508;2023-12-14T02:02:05;98893.75;;;3.64;100.00
13734;BME280;43298;52.560;13.508;2023-12-14T02:04:31;98888.81;;;3.59;100.00
13734;BME280;43298;52.560;13.508;2023-12-14T02:06:57;98891.19;;;3.64;100.00
13734;BME280;43298;52.560;13.508;2023-12-14T02:09:23;98895.56;;;3.60;100.00
13734;BME280;43298;52.560;13.508;2023-12-14T02:11:50;98904.16;;;3.59;100.00
13734;BME280;43298;52.560;13.508;2023-12-14T02:14:16;98903.44;;;3.56;100.00
13734;BME280;43298;52.560;13.508;2023-12-14T02:16:42;98903.31;;;3.59;100.00
13734;BME280;43298;52.560;13.508;2023-12-14T02:19:08;98899.84;;;3.60;100.00
13734;BME280;43298;52.560;13.508;2023-12-14T02:21:34;98901.66;;;3.58;100.00
13734;BME280;43298;52.560;13.508;2023-12-14T02:23:59;98903.31;;;3.59;100.00
13734;BME280;43298;52.560;13.508;2023-12-14T02:26:25;98913.66;;;3.56;100.00
13734;BME280;43298;52.560;13.508;2023-12-14T02:28:51;98902.63;;;3.55;100.00
13734;BME280;43298;52.560;13.508;2023-12-14T02:31:19;98899.94;;;3.58;100.00
13734;BME280;43298;52.560;13.508;2023-12-14T02:33:44;98903.44;;;3.56;100.00
13734;BME280;43298;52.560;13.508;2023-12-14T02:36:10;98910.34;;;3.54;100.00
13734;BME280;43298;52.560;13.508;2023-12-14T02:38:36;98909.63;;;3.50;100.00
13734;BME280;43298;52.560;13.508;2023-12-14T02:41:02;98919.03;;;3.50;100.00
13734;BME280;43298;52.560;13.508;2023-12-14T02:43:28;98911.31;;;3.51;100.00
13734;BME280;43298;52.560;13.508;2023-12-14T02:45:54;98913.03;;;3.51;100.00
13734;BME280;43298;52.560;13.508;2023-12-14T02:48:25;98920.81;;;3.48;100.00
13734;BME280;43298;52.560;13.508;2023-12-14T02:50:50;98918.81;;;3.54;100.00
13734;BME280;43298;52.560;13.508;2023-12-14T02:53:16;98914.75;;;3.50;100.00
13734;BME280;43298;52.560;13.508;2023-12-14T02:55:42;98920.81;;;3.48;100.00
13734;BME280;43298;52.560;13.508;2023-12-14T02:58:08;98925.94;;;3.48;100.00
13734;BME280;43298;52.560;13.508;2023-12-14T03:00:33;98923.31;;;3.49;100.00
13734;BME280;43298;52.560;13.508;2023-12-14T03:02:59;98933.66;;;3.46;100.00
13734;BME280;43298;52.560;13.508;2023-12-14T03:05:25;98933.66;;;3.46;100.00
13734;BME280;43298;52.560;13.508;2023-12-14T03:07:51;98933.53;;;3.49;100.00
13734;BME280;43298;52.560;13.508;2023-12-14T03:10:16;98946.25;;;3.51;100.00
13734;BME280;43298;52.560;13.508;2023-12-14T03:12:42;98943.06;;;3.46;100.00
13734;BME280;43298;52.560;13.508;2023-12-14T03:15:09;98954.88;;;3.48;100.00
13734;BME280;43298;52.560;13.508;2023-12-14T03:17:34;98959.91;;;3.50;100.00
13734;BME280;43298;52.560;13.508;2023-12-14T03:20:01;98966.75;;;3.49;100.00
13734;BME280;43298;52.560;13.508;2023-12-14T03:22:26;98959.91;;;3.50;100.00
13734;BME280;43298;52.560;13.508;2023-12-14T03:24:52;98964.75;;;3.56;100.00
13734;BME280;43298;52.560;13.508;2023-12-14T03:27:18;98975.94;;;3.53;100.00
13734;BME280;43298;52.560;13.508;2023-12-14T03:29:45;98972.47;;;3.54;100.00
13734;BME280;43298;52.560;13.508;2023-12-14T03:32:11;98981.03;;;3.53;100.00
13734;BME280;43298;52.560;13.508;2023-12-14T03:34:37;98983.72;;;3.50;100.00
13734;BME280;43298;52.560;13.508;2023-12-14T03:37:03;98984.56;;;3.51;100.00
13734;BME280;43298;52.560;13.508;2023-12-14T03:39:29;98983.66;;;3.52;100.00
13734;BME280;43298;52.560;13.508;2023-12-14T03:41:54;98985.47;;;3.50;100.00
13734;BME280;43298;52.560;13.508;2023-12-14T03:44:20;98987.13;;;3.51;100.00
13734;BME280;43298;52.560;13.508;2023-12-14T03:46:46;98988.03;;;3.50;100.00
13734;BME280;43298;52.560;13.508;2023-12-14T03:49:12;98988.22;;;3.45;100.00
13734;BME280;43298;52.560;13.508;2023-12-14T03:51:38;98991.38;;;3.50;100.00
13734;BME280;43298;52.560;13.508;2023-12-14T03:54:04;98994.78;;;3.51;100.00
13734;BME280;43298;52.560;13.508;2023-12-14T03:56:30;98996.38;;;3.53;100.00
13734;BME280;43298;52.560;13.508;2023-12-14T03:58:55;99008.41;;;3.51;100.00
13734;BME280;43298;52.560;13.508;2023-12-14T04:01:22;99015.22;;;3.51;100.00
13734;BME280;43298;52.560;13.508;2023-12-14T04:03:48;99018.47;;;3.54;100.00
13734;BME280;43298;52.560;13.508;2023-12-14T04:06:15;99025.56;;;3.48;100.00
13734;BME280;43298;52.560;13.508;2023-12-14T04:08:41;99025.38;;;3.52;100.00
13734;BME280;43298;52.560;13.508;2023-12-14T04:11:08;99028.00;;;3.51;100.00
13734;BME280;43298;52.560;13.508;2023-12-14T04:13:34;99026.22;;;3.53;100.00
13734;BME280;43298;52.560;13.508;2023-12-14T04:16:00;99025.22;;;3.57;100.00
13734;BME280;43298;52.560;13.508;2023-12-14T04:18:26;99025.31;;;3.54;100.00
13734;BME280;43298;52.560;13.508;2023-12-14T04:20:52;99029.53;;;3.55;100.00
13734;BME280;43298;52.560;13.508;2023-12-14T04:23:18;99034.53;;;3.58;100.00
13734;BME280;43298;52.560;13.508;2023-12-14T04:25:44;99030.44;;;3.54;100.00
13734;BME280;43298;52.560;13.508;2023-12-14T04:28:10;99037.97;;;3.57;100.00
13734;BME280;43298;52.560;13.508;2023-12-14T04:30:36;99039.63;;;3.58;100.00
13734;BME280;43298;52.560;13.508;2023-12-14T04:33:02;99046.34;;;3.60;100.00
13734;BME280;43298;52.560;13.508;2023-12-14T04:35:27;99048.78;;;3.63;100.00
13734;BME280;43298;52.560;13.508;2023-12-14T04:37:53;99054.13;;;3.57;100.00
13734;BME280;43298;52.560;13.508;2023-12-14T04:40:19;99050.69;;;3.58;100.00
13734;BME280;43298;52.560;13.508;2023-12-14T04:42:45;99061.72;;;3.59;100.00
13734;BME280;43298;52.560;13.508;2023-12-14T04:45:11;99051.38;;;3.62;100.00
13734;BME280;43298;52.560;13.508;2023-12-14T04:47:38;99053.94;;;3.62;100.00
13734;BME280;43298;52.560;13.508;2023-12-14T04:50:05;99058.22;;;3.61;100.00
13734;BME280;43298;52.560;13.508;2023-12-14T04:52:30;99063.38;;;3.60;100.00
13734;BME280;43298;52.560;13.508;2023-12-14T04:54:56;99059.22;;;3.57;100.00
13734;BME280;43298;52.560;13.508;2023-12-14T04:57:22;99072.72;;;3.61;100.00
13734;BME280;43298;52.560;13.508;2023-12-14T04:59:48;99069.22;;;3.63;100.00
13734;BME280;43298;52.560;13.508;2023-12-14T05:02:13;99070.94;;;3.63;100.00
13734;BME280;43298;52.560;13.508;2023-12-14T05:04:39;99075.22;;;3.62;100.00
13734;BME280;43298;52.560;13.508;2023-12-14T05:07:05;99078.47;;;3.66;100.00
13734;BME280;43298;52.560;13.508;2023-12-14T05:09:31;99078.59;;;3.63;100.00
13734;BME280;43298;52.560;13.508;2023-12-14T05:11:57;99082.78;;;3.65;100.00
13734;BME280;43298;52.560;13.508;2023-12-14T05:14:23;99080.41;;;3.61;100.00
13734;BME280;43298;52.560;13.508;2023-12-14T05:16:50;99080.28;;;3.64;100.00
13734;BME280;43298;52.560;13.508;2023-12-14T05:19:16;99090.56;;;3.62;100.00
13734;BME280;43298;52.560;13.508;2023-12-14T05:21:41;99088.59;;;3.69;100.00
13734;BME280;43298;52.560;13.508;2023-12-14T05:24:07;99101.47;;;3.66;100.00
13734;BME280;43298;52.560;13.508;2023-12-14T05:26:33;99103.91;;;3.69;100.00
13734;BME280;43298;52.560;13.508;2023-12-14T05:28:59;99113.19;;;3.71;100.00
13734;BME280;43298;52.560;13.508;2023-12-14T05:31:25;99115.03;;;3.68;100.00
13734;BME280;43298;52.560;13.508;2023-12-14T05:33:50;99116.75;;;3.67;100.00
13734;BME280;43298;52.560;13.508;2023-12-14T05:36:16;99124.41;;;3.67;100.00
13734;BME280;43298;52.560;13.508;2023-12-14T05:38:43;99133.81;;;3.67;100.00
13734;BME280;43298;52.560;13.508;2023-12-14T05:41:09;99134.75;;;3.64;100.00
13734;BME280;43298;52.560;13.508;2023-12-14T05:43:35;99136.34;;;3.67;100.00
13734;BME280;43298;52.560;13.508;2023-12-14T05:46:02;99138.69;;;3.73;100.00
13734;BME280;43298;52.560;13.508;2023-12-14T05:48:29;99147.31;;;3.70;100.00
13734;BME280;43298;52.560;13.508;2023-12-14T05:50:56;99145.81;;;3.65;100.00
13734;BME280;43298;52.560;13.508;2023-12-14T05:53:22;99150.81;;;3.68;100.00
13734;BME280;43298;52.560;13.508;2023-12-14T05:55:48;99159.34;;;3.67;100.00
13734;BME280;43298;52.560;13.508;2023-12-14T05:58:14;99161.03;;;3.68;100.00
13734;BME280;43298;52.560;13.508;2023-12-14T06:00:40;99162.75;;;3.67;100.00
13734;BME280;43298;52.560;13.508;2023-12-14T06:03:06;99163.47;;;3.71;100.00
13734;BME280;43298;52.560;13.508;2023-12-14T06:05:32;99165.16;;;3.72;100.00
13734;BME280;43298;52.560;13.508;2023-12-14T06:07:58;99172.97;;;3.67;100.00
13734;BME280;43298;52.560;13.508;2023-12-14T06:10:24;99171.84;;;3.74;100.00
13734;BME280;43298;52.560;13.508;2023-12-14T06:12:49;99172.69;;;3.75;100.00
13734;BME280;43298;52.560;13.508;2023-12-14T06:15:15;99169.41;;;3.71;100.00
13734;BME280;43298;52.560;13.508;2023-12-14T06:17:41;99182.88;;;3.76;100.00
13734;BME280;43298;52.560;13.508;2023-12-14T06:20:08;99183.09;;;3.70;100.00
13734;BME280;43298;52.560;13.508;2023-12-14T06:22:36;99190.59;;;3.75;100.00
13734;BME280;43298;52.560;13.508;2023-12-14T06:25:03;99195.81;;;3.72;100.00
13734;BME280;43298;52.560;13.508;2023-12-14T06:27:29;99197.59;;;3.70;100.00
13734;BME280;43298;52.560;13.508;2023-12-14T06:29:55;99199.84;;;3.77;100.00
13734;BME280;43298;52.560;13.508;2023-12-14T06:32:21;99196.72;;;3.71;100.00
13734;BME280;43298;52.560;13.508;2023-12-14T06:34:47;99196.63;;;3.72;100.00
13734;BME280;43298;52.560;13.508;2023-12-14T06:37:13;99193.47;;;3.66;100.00
13734;BME280;43298;52.560;13.508;2023-12-14T06:39:41;99202.69;;;3.70;100.00
13734;BME280;43298;52.560;13.508;2023-12-14T06:42:07;99196.72;;;3.71;100.00
13734;BME280;43298;52.560;13.508;2023-12-14T06:44:32;99206.25;;;3.66;100.00
13734;BME280;43298;52.560;13.508;2023-12-14T06:46:58;99217.97;;;3.71;100.00
13734;BME280;43298;52.560;13.508;2023-12-14T06:49:25;99227.56;;;3.66;100.00
13734;BME280;43298;52.560;13.508;2023-12-14T06:51:52;99224.09;;;3.67;100.00
13734;BME280;43298;52.560;13.508;2023-12-14T06:54:18;99230.06;;;3.68;100.00
13734;BME280;43298;52.560;13.508;2023-12-14T06:56:44;99236.13;;;3.65;100.00
13734;BME280;43298;52.560;13.508;2023-12-14T06:59:09;99246.34;;;3.65;100.00
13734;BME280;43298;52.560;13.508;2023-12-14T07:01:35;99250.72;;;3.62;100.00
13734;BME280;43298;52.560;13.508;2023-12-14T07:04:01;99261.72;;;3.64;100.00
13734;BME280;43298;52.560;13.508;2023-12-14T07:06:29;99270.22;;;3.64;100.00
13734;BME280;43298;52.560;13.508;2023-12-14T07:08:55;99272.66;;;3.67;100.00
13734;BME280;43298;52.560;13.508;2023-12-14T07:11:21;99279.63;;;3.64;100.00
13734;BME280;43298;52.560;13.508;2023-12-14T07:13:47;99282.16;;;3.64;100.00
13734;BME280;43298;52.560;13.508;2023-12-14T07:16:13;99282.94;;;3.66;100.00
13734;BME280;43298;52.560;13.508;2023-12-14T07:18:41;99287.81;;;3.72;100.00
13734;BME280;43298;52.560;13.508;2023-12-14T07:21:08;99290.66;;;3.64;100.00
13734;BME280;43298;52.560;13.508;2023-12-14T07:23:35;99310.22;;;3.65;100.00
13734;BME280;43298;52.560;13.508;2023-12-14T07:26:01;99311.94;;;3.65;100.00
13734;BME280;43298;52.560;13.508;2023-12-14T07:28:27;99314.56;;;3.63;100.00
13734;BME280;43298;52.560;13.508;2023-12-14T07:30:53;99323.94;;;3.63;100.00
13734;BME280;43298;52.560;13.508;2023-12-14T07:33:19;99339.16;;;3.66;100.00
13734;BME280;43298;52.560;13.508;2023-12-14T07:35:45;99345.06;;;3.68;100.00
13734;BME280;43298;52.560;13.508;2023-12-14T07:38:11;99349.38;;;3.66;100.00
13734;BME280;43298;52.560;13.508;2023-12-14T07:40:37;99354.59;;;3.63;100.00
13734;BME280;43298;52.560;13.508;2023-12-14T07:43:06;99366.38;;;3.67;100.00
13734;BME280;43298;52.560;13.508;2023-12-14T07:45:32;99363.81;;;3.67;100.00
13734;BME280;43298;52.560;13.508;2023-12-14T07:47:57;99359.56;;;3.67;100.00
13734;BME280;43298;52.560;13.508;2023-12-14T07:50:25;99362.09;;;3.67;100.00
13734;BME280;43298;52.560;13.508;2023-12-14T07:52:52;99364.66;;;3.67;100.00
13734;BME280;43298;52.560;13.508;2023-12-14T07:55:19;99383.50;;;3.65;100.00
13734;BME280;43298;52.560;13.508;2023-12-14T07:57:45;99378.38;;;3.65;100.00
13734;BME280;43298;52.560;13.508;2023-12-14T08:00:11;99391.16;;;3.65;100.00
13734;BME280;43298;52.560;13.508;2023-12-14T08:02:38;99388.41;;;3.71;100.00
13734;BME280;43298;52.560;13.508;2023-12-14T08:05:04;99391.72;;;3.73;100.00
13734;BME280;43298;52.560;13.508;2023-12-14T08:07:32;99388.41;;;3.71;100.00
13734;BME280;43298;52.560;13.508;2023-12-14T08:09:58;99402.91;;;3.70;100.00
13734;BME280;43298;52.560;13.508;2023-12-14T08:12:24;99412.28;;;3.70;100.00
13734;BME280;43298;52.560;13.508;2023-12-14T08:14:51;99404.66;;;3.68;100.00
13734;BME280;43298;52.560;13.508;2023-12-14T08:17:17;99413.97;;;3.71;100.00
13734;BME280;43298;52.560;13.508;2023-12-14T08:19:43;99422.44;;;3.71;100.00
13734;BME280;43298;52.560;13.508;2023-12-14T08:22:10;99420.53;;;3.78;100.00
13734;BME280;43298;52.560;13.508;2023-12-14T08:24:37;99429.31;;;3.71;100.00
13734;BME280;43298;52.560;13.508;2023-12-14T08:27:03;99431.63;;;3.77;100.00
13734;BME280;43298;52.560;13.508;2023-12-14T08:29:29;99436.78;;;3.75;100.00
13734;BME280;43298;52.560;13.508;2023-12-14T08:31:55;99446.25;;;3.73;100.00
13734;BME280;43298;52.560;13.508;2023-12-14T08:34:24;99458.97;;;3.75;100.00
13734;BME280;43298;52.560;13.508;2023-12-14T08:36:50;99461.53;;;3.75;100.00
13734;BME280;43298;52.560;13.508;2023-12-14T08:39:17;99466.53;;;3.78;100.00
13734;BME280;43298;52.560;13.508;2023-12-14T08:41:42;99467.22;;;3.83;100.00
13734;BME280;43298;52.560;13.508;2023-12-14T08:44:10;99474.81;;;3.84;100.00
13734;BME280;43298;52.560;13.508;2023-12-14T08:46:45;99480.69;;;3.86;100.00
13734;BME280;43298;52.560;13.508;2023-12-14T08:49:12;99479.94;;;3.84;100.00
13734;BME280;43298;52.560;13.508;2023-12-14T08:51:39;99485.63;;;3.92;100.00
13734;BME280;43298;52.560;13.508;2023-12-14T08:54:06;99495.91;;;3.91;100.00
13734;BME280;43298;52.560;13.508;2023-12-14T08:56:31;99505.34;;;3.89;100.00
13734;BME280;43298;52.560;13.508;2023-12-14T08:58:57;99505.97;;;3.95;100.00
13734;BME280;43298;52.560;13.508;2023-12-14T09:01:25;99508.56;;;3.94;100.00
13734;BME280;43298;52.560;13.508;2023-12-14T09:03:51;99513.69;;;3.94;100.00
13734;BME280;43298;52.560;13.508;2023-12-14T09:06:17;99515.25;;;3.98;100.00
13734;BME280;43298;52.560;13.508;2023-12-14T09:08:46;99521.31;;;3.95;100.00
13734;BME280;43298;52.560;13.508;2023-12-14T09:11:12;99529.94;;;3.93;100.00
13734;BME280;43298;52.560;13.508;2023-12-14T09:13:38;99524.81;;;3.93;100.00
13734;BME280;43298;52.560;13.508;2023-12-14T09:16:05;99536.66;;;3.95;100.00
13734;BME280;43298;52.560;13.508;2023-12-14T09:18:31;99542.63;;;3.96;100.00
13734;BME280;43298;52.560;13.508;2023-12-14T09:20:57;99545.88;;;3.99;100.00
13734;BME280;43298;52.560;13.508;2023-12-14T09:23:23;99560.34;;;4.00;100.00
13734;BME280;43298;52.560;13.508;2023-12-14T09:25:49;99564.59;;;4.01;100.00
13734;BME280;43298;52.560;13.508;2023-12-14T09:28:15;99560.28;;;4.02;100.00
13734;BME280;43298;52.560;13.508;2023-12-14T09:30:41;99565.41;;;4.02;100.00
13734;BME280;43298;52.560;13.508;2023-12-14T09:33:07;99572.22;;;4.03;100.00
13734;BME280;43298;52.560;13.508;2023-12-14T09:35:35;99580.03;;;3.98;100.00
13734;BME280;43298;52.560;13.508;2023-12-14T09:38:03;99579.88;;;4.03;100.00
13734;BME280;43298;52.560;13.508;2023-12-14T09:40:29;99585.81;;;4.03;100.00
13734;BME280;43298;52.560;13.508;2023-12-14T09:42:56;99581.53;;;4.04;100.00
13734;BME280;43298;52.560;13.508;2023-12-14T09:45:27;99596.09;;;4.02;100.00
13734;BME280;43298;52.560;13.508;2023-12-14T09:47:54;99598.75;;;3.99;100.00
13734;BME280;43298;52.560;13.508;2023-12-14T09:50:21;99596.19;;;3.99;100.00
13734;BME280;43298;52.560;13.508;2023-12-14T09:52:47;99608.09;;;4.00;100.00
13734;BME280;43298;52.560;13.508;2023-12-14T09:55:15;99605.66;;;3.97;100.00
13734;BME280;43298;52.560;13.508;2023-12-14T09:57:41;99608.91;;;4.00;100.00
13734;BME280;43298;52.560;13.508;2023-12-14T10:00:07;99612.19;;;4.05;100.00
13734;BME280;43298;52.560;13.508;2023-12-14T10:02:37;99606.03;;;4.11;100.00
13734;BME280;43298;52.560;13.508;2023-12-14T10:05:03;99610.34;;;4.09;100.00
13734;BME280;43298;52.560;13.508;2023-12-14T10:07:31;99610.34;;;4.09;100.00
13734;BME280;43298;52.560;13.508;2023-12-14T10:10:10;99605.94;;;4.14;100.00
13734;BME280;43298;52.560;13.508;2023-12-14T10:12:55;99618.72;;;4.14;100.00
13734;BME280;43298;52.560;13.508;2023-12-14T10:15:21;99622.88;;;4.16;100.00
13734;BME280;43298;52.560;13.508;2023-12-14T10:17:52;99628.94;;;4.14;100.00
13734;BME280;43298;52.560;13.508;2023-12-14T10:20:20;99636.81;;;4.08;100.00
13734;BME280;43298;52.560;13.508;2023-12-14T10:22:52;99634.31;;;4.06;100.00
13734;BME280;43298;52.560;13.508;2023-12-14T10:25:19;99634.44;;;4.02;100.00
13734;BME280;43298;52.560;13.508;2023-12-14T10:27:51;99642.66;;;4.11;100.00
13734;BME280;43298;52.560;13.508;2023-12-14T10:30:18;99642.91;;;4.04;100.00
13734;BME280;43298;52.560;13.508;2023-12-14T10:32:48;99647.84;;;4.10;100.00
13734;BME280;43298;52.560;13.508;2023-12-14T10:35:15;99652.97;;;4.10;100.00
13734;BME280;43298;52.560;13.508;2023-12-14T10:37:42;99670.97;;;4.07;100.00
13734;BME280;43298;52.560;13.508;2023-12-14T10:40:14;99672.81;;;4.02;100.00
13734;BME280;43298;52.560;13.508;2023-12-14T10:42:43;99677.78;;;4.06;100.00
13734;BME280;43298;52.560;13.508;2023-12-14T10:45:14;99682.19;;;4.03;100.00
13734;BME280;43298;52.560;13.508;2023-12-14T10:47:46;99693.22;;;4.03;100.00
13734;BME280;43298;52.560;13.508;2023-12-14T10:50:14;99699.09;;;4.07;100.00
13734;BME280;43298;52.560;13.508;2023-12-14T10:52:41;99695.78;;;4.03;100.00
13734;BME280;43298;52.560;13.508;2023-12-14T10:55:32;99693.66;;;4.16;100.00
13734;BME280;43298;52.560;13.508;2023-12-14T10:57:59;99702.41;;;4.09;100.00
13734;BME280;43298;52.560;13.508;2023-12-14T11:00:26;99707.53;;;4.09;100.00
13734;BME280;43298;52.560;13.508;2023-12-14T11:02:52;99704.00;;;4.13;100.00
13734;BME280;43298;52.560;13.508;2023-12-14T11:05:19;99713.34;;;4.14;100.00
13734;BME280;43298;52.560;13.508;2023-12-14T11:08:02;99710.13;;;4.07;100.00
13734;BME280;43298;52.560;13.508;2023-12-14T11:10:54;99714.94;;;4.18;100.00
13734;BME280;43298;52.560;13.508;2023-12-14T11:13:24;99711.47;;;4.19;100.00
13734;BME280;43298;52.560;13.508;2023-12-14T11:15:51;99718.22;;;4.21;100.00
13734;BME280;43298;52.560;13.508;2023-12-14T11:20:50;99718.81;;;4.29;100.00
13734;BME280;43298;52.560;13.508;2023-12-14T11:25:59;99727.06;;;4.37;100.00
13734;BME280;43298;52.560;13.508;2023-12-14T11:28:30;99725.28;;;4.39;100.00
13734;BME280;43298;52.560;13.508;2023-12-14T11:30:56;99737.31;;;4.37;100.00
13734;BME280;43298;52.560;13.508;2023-12-14T11:33:22;99734.66;;;4.40;100.00
13734;BME280;43298;52.560;13.508;2023-12-14T11:35:51;99745.66;;;4.42;100.00
13734;BME280;43298;52.560;13.508;2023-12-14T11:38:19;99743.28;;;4.36;100.00
13734;BME280;43298;52.560;13.508;2023-12-14T11:40:47;99757.84;;;4.36;100.00
13734;BME280;43298;52.560;13.508;2023-12-14T11:43:14;99764.72;;;4.34;100.00
13734;BME280;43298;52.560;13.508;2023-12-14T11:45:41;99770.81;;;4.30;100.00
13734;BME280;43298;52.560;13.508;2023-12-14T11:48:09;99776.72;;;4.32;100.00
13734;BME280;43298;52.560;13.508;2023-12-14T11:50:37;99777.56;;;4.32;100.00
13734;BME280;43298;52.560;13.508;2023-12-14T11:53:04;99783.38;;;4.37;100.00
13734;BME280;43298;52.560;13.508;2023-12-14T11:55:32;99785.78;;;4.42;100.00
13734;BME280;43298;52.560;13.508;2023-12-14T11:57:59;99791.16;;;4.34;100.00
13734;BME280;43298;52.560;13.508;2023-12-14T12:00:27;99798.59;;;4.42;100.00
13734;BME280;43298;52.560;13.508;2023-12-14T12:03:16;99800.22;;;4.44;100.00
13734;BME280;43298;52.560;13.508;2023-12-14T12:05:50;99814.91;;;4.38;100.00
13734;BME280;43298;52.560;13.508;2023-12-14T12:08:19;99811.72;;;4.31;100.00
13734;BME280;43298;52.560;13.508;2023-12-14T12:10:46;99815.03;;;4.35;100.00
13734;BME280;43298;52.560;13.508;2023-12-14T12:13:17;99815.97;;;4.31;100.00
13734;BME280;43298;52.560;13.508;2023-12-14T12:15:44;99823.66;;;4.31;100.00
13734;BME280;43298;52.560;13.508;2023-12-14T12:18:12;99828.84;;;4.29;100.00
13734;BME280;43298;52.560;13.508;2023-12-14T12:20:39;99828.69;;;4.34;100.00
13734;BME280;43298;52.560;13.508;2023-12-14T12:23:05;99826.13;;;4.34;100.00
13734;BME280;43298;52.560;13.508;2023-12-14T12:25:32;99834.97;;;4.24;100.00
13734;BME280;43298;52.560;13.508;2023-12-14T12:27:59;99837.22;;;4.34;100.00
13734;BME280;43298;52.560;13.508;2023-12-14T12:30:31;99840.63;;;4.35;100.00
13734;BME280;43298;52.560;13.508;2023-12-14T12:32:57;99846.47;;;4.38;100.00
13734;BME280;43298;52.560;13.508;2023-12-14T12:35:24;99847.72;;;4.25;100.00
13734;BME280;43298;52.560;13.508;2023-12-14T12:37:51;99852.72;;;4.28;100.00
13734;BME280;43298;52.560;13.508;2023-12-14T12:40:21;99859.44;;;4.32;100.00
13734;BME280;43298;52.560;13.508;2023-12-14T12:42:48;99862.97;;;4.28;100.00
13734;BME280;43298;52.560;13.508;2023-12-14T12:45:16;99869.03;;;4.26;100.00
13734;BME280;43298;52.560;13.508;2023-12-14T12:47:48;99865.88;;;4.18;100.00
13734;BME280;43298;52.560;13.508;2023-12-14T12:50:14;99870.69;;;4.27;100.00
13734;BME280;43298;52.560;13.508;2023-12-14T12:52:40;99864.75;;;4.26;100.00